sensor_id;sensor_type;location;lat;lon;timestamp;P1;durP1;ratioP1;P2;durP2;ratioP2
21822;SDS011;11074;48.596;9.238;2023-02-28T00:01:13;4.80;;;1.90;;
21822;SDS011;11074;48.596;9.238;2023-02-28T00:03:40;3.88;;;1.70;;
21822;SDS011;11074;48.596;9.238;2023-02-28T00:06:07;3.97;;;1.92;;
21822;SDS011;11074;48.596;9.238;2023-02-28T00:08:34;4.15;;;2.28;;
21822;SDS011;11074;48.596;9.238;2023-02-28T00:11:01;4.60;;;2.03;;
21822;SDS011;11074;48.596;9.238;2023-02-28T00:13:29;4.40;;;1.92;;
21822;SDS011;11074;48.596;9.238;2023-02-28T00:15:59;5.90;;;2.45;;
21822;SDS011;11074;48.596;9.238;2023-02-28T00:18:31;3.92;;;2.08;;
21822;SDS011;11074;48.596;9.238;2023-02-28T00:20:58;2.53;;;1.75;;
21822;SDS011;11074;48.596;9.238;2023-02-28T00:23:24;5.70;;;1.98;;
21822;SDS011;11074;48.596;9.238;2023-02-28T00:25:51;2.97;;;1.90;;
21822;SDS011;11074;48.596;9.238;2023-02-28T00:28:18;4.13;;;1.90;;
21822;SDS011;11074;48.596;9.238;2023-02-28T00:30:44;3.35;;;1.80;;
21822;SDS011;11074;48.596;9.238;2023-02-28T00:33:10;4.78;;;2.22;;
21822;SDS011;11074;48.596;9.238;2023-02-28T00:35:36;3.25;;;2.03;;
21822;SDS011;11074;48.596;9.238;2023-02-28T00:38:01;6.80;;;2.47;;
21822;SDS011;11074;48.596;9.238;2023-02-28T00:40:28;4.63;;;2.28;;
21822;SDS011;11074;48.596;9.238;2023-02-28T00:42:54;4.10;;;2.00;;
21822;SDS011;11074;48.596;9.238;2023-02-28T00:45:20;3.92;;;2.30;;
21822;SDS011;11074;48.596;9.238;2023-02-28T00:47:46;4.22;;;2.28;;
21822;SDS011;11074;48.596;9.238;2023-02-28T00:50:14;4.10;;;2.03;;
21822;SDS011;11074;48.596;9.238;2023-02-28T00:52:44;4.32;;;2.20;;
21822;SDS011;11074;48.596;9.238;2023-02-28T00:55:11;4.60;;;2.05;;
21822;SDS011;11074;48.596;9.238;2023-02-28T00:57:37;3.60;;;2.20;;
21822;SDS011;11074;48.596;9.238;2023-02-28T01:00:03;5.38;;;2.08;;
21822;SDS011;11074;48.596;9.238;2023-02-28T01:02:30;5.05;;;2.00;;
21822;SDS011;11074;48.596;9.238;2023-02-28T01:04:56;6.50;;;1.90;;
21822;SDS011;11074;48.596;9.238;2023-02-28T01:07:22;3.83;;;1.98;;
21822;SDS011;11074;48.596;9.238;2023-02-28T01:09:48;4.57;;;1.90;;
21822;SDS011;11074;48.596;9.238;2023-02-28T01:12:14;5.40;;;2.05;;
21822;SDS011;11074;48.596;9.238;2023-02-28T01:14:40;3.58;;;2.15;;
21822;SDS011;11074;48.596;9.238;2023-02-28T01:17:06;3.67;;;1.88;;
21822;SDS011;11074;48.596;9.238;2023-02-28T01:19:32;3.33;;;1.80;;
21822;SDS011;11074;48.596;9.238;2023-02-28T01:22:00;4.25;;;1.75;;
21822;SDS011;11074;48.596;9.238;2023-02-28T01:24:28;3.70;;;2.20;;
21822;SDS011;11074;48.596;9.238;2023-02-28T01:26:54;3.95;;;2.10;;
21822;SDS011;11074;48.596;9.238;2023-02-28T01:29:19;4.40;;;2.20;;
21822;SDS011;11074;48.596;9.238;2023-02-28T01:31:45;3.33;;;2.00;;
21822;SDS011;11074;48.596;9.238;2023-02-28T01:34:12;6.18;;;2.33;;
21822;SDS011;11074;48.596;9.238;2023-02-28T01:36:37;4.57;;;2.25;;
21822;SDS011;11074;48.596;9.238;2023-02-28T01:39:03;4.88;;;1.90;;
21822;SDS011;11074;48.596;9.238;2023-02-28T01:41:30;3.28;;;2.00;;
21822;SDS011;11074;48.596;9.238;2023-02-28T01:44:02;5.50;;;2.10;;
21822;SDS011;11074;48.596;9.238;2023-02-28T01:46:33;5.05;;;2.28;;
21822;SDS011;11074;48.596;9.238;2023-02-28T01:49:02;5.25;;;2.10;;
21822;SDS011;11074;48.596;9.238;2023-02-28T01:51:40;4.60;;;1.95;;
21822;SDS011;11074;48.596;9.238;2023-02-28T01:54:16;4.75;;;2.33;;
21822;SDS011;11074;48.596;9.238;2023-02-28T01:56:54;4.10;;;2.22;;
21822;SDS011;11074;48.596;9.238;2023-02-28T01:59:33;6.55;;;2.20;;
21822;SDS011;11074;48.596;9.238;2023-02-28T02:02:05;5.22;;;2.25;;
21822;SDS011;11074;48.596;9.238;2023-02-28T02:04:36;4.20;;;2.03;;
21822;SDS011;11074;48.596;9.238;2023-02-28T02:07:14;4.90;;;2.40;;
21822;SDS011;11074;48.596;9.238;2023-02-28T02:09:41;5.53;;;2.20;;
21822;SDS011;11074;48.596;9.238;2023-02-28T02:12:11;4.55;;;2.40;;
21822;SDS011;11074;48.596;9.238;2023-02-28T02:17:46;6.32;;;2.63;;
21822;SDS011;11074;48.596;9.238;2023-02-28T02:20:45;4.38;;;2.13;;
21822;SDS011;11074;48.596;9.238;2023-02-28T02:29:41;3.95;;;2.17;;
21822;SDS011;11074;48.596;9.238;2023-02-28T02:37:54;4.03;;;2.33;;
21822;SDS011;11074;48.596;9.238;2023-02-28T02:40:33;4.80;;;2.30;;
21822;SDS011;11074;48.596;9.238;2023-02-28T02:43:23;5.43;;;2.67;;
21822;SDS011;11074;48.596;9.238;2023-02-28T02:46:01;4.32;;;2.45;;
21822;SDS011;11074;48.596;9.238;2023-02-28T02:48:38;5.47;;;2.33;;
21822;SDS011;11074;48.596;9.238;2023-02-28T02:51:11;4.47;;;2.50;;
21822;SDS011;11074;48.596;9.238;2023-02-28T02:53:50;4.43;;;2.42;;
21822;SDS011;11074;48.596;9.238;2023-02-28T02:56:41;5.05;;;2.70;;
21822;SDS011;11074;48.596;9.238;2023-02-28T02:59:12;4.50;;;2.47;;
21822;SDS011;11074;48.596;9.238;2023-02-28T03:01:47;5.30;;;2.80;;
21822;SDS011;11074;48.596;9.238;2023-02-28T03:04:17;4.97;;;2.47;;
21822;SDS011;11074;48.596;9.238;2023-02-28T03:06:48;4.82;;;2.60;;
21822;SDS011;11074;48.596;9.238;2023-02-28T03:09:23;4.57;;;2.55;;
21822;SDS011;11074;48.596;9.238;2023-02-28T03:11:51;5.00;;;2.28;;
21822;SDS011;11074;48.596;9.238;2023-02-28T03:20:31;4.60;;;2.75;;
21822;SDS011;11074;48.596;9.238;2023-02-28T03:23:23;5.03;;;2.75;;
21822;SDS011;11074;48.596;9.238;2023-02-28T03:26:12;5.57;;;2.70;;
21822;SDS011;11074;48.596;9.238;2023-02-28T03:32:03;4.82;;;3.03;;
21822;SDS011;11074;48.596;9.238;2023-02-28T03:34:58;4.07;;;2.50;;
21822;SDS011;11074;48.596;9.238;2023-02-28T03:37:47;4.43;;;2.75;;
21822;SDS011;11074;48.596;9.238;2023-02-28T03:42:51;5.75;;;2.97;;
21822;SDS011;11074;48.596;9.238;2023-02-28T03:45:26;4.25;;;3.00;;
21822;SDS011;11074;48.596;9.238;2023-02-28T03:48:08;5.55;;;2.63;;
21822;SDS011;11074;48.596;9.238;2023-02-28T03:50:53;7.35;;;2.90;;
21822;SDS011;11074;48.596;9.238;2023-02-28T03:53:34;4.95;;;2.60;;
21822;SDS011;11074;48.596;9.238;2023-02-28T03:56:15;5.75;;;2.85;;
21822;SDS011;11074;48.596;9.238;2023-02-28T04:01:47;6.43;;;2.90;;
21822;SDS011;11074;48.596;9.238;2023-02-28T04:04:15;9.55;;;3.53;;
21822;SDS011;11074;48.596;9.238;2023-02-28T04:06:42;4.95;;;2.97;;
21822;SDS011;11074;48.596;9.238;2023-02-28T04:09:10;5.30;;;3.03;;
21822;SDS011;11074;48.596;9.238;2023-02-28T04:11:39;7.32;;;3.53;;
21822;SDS011;11074;48.596;9.238;2023-02-28T04:14:09;5.63;;;3.10;;
21822;SDS011;11074;48.596;9.238;2023-02-28T04:16:36;4.63;;;3.10;;
21822;SDS011;11074;48.596;9.238;2023-02-28T04:19:06;5.68;;;2.80;;
21822;SDS011;11074;48.596;9.238;2023-02-28T04:21:36;5.80;;;3.20;;
21822;SDS011;11074;48.596;9.238;2023-02-28T04:24:04;4.30;;;2.97;;
21822;SDS011;11074;48.596;9.238;2023-02-28T04:26:34;5.60;;;3.05;;
21822;SDS011;11074;48.596;9.238;2023-02-28T04:29:02;4.90;;;2.97;;
21822;SDS011;11074;48.596;9.238;2023-02-28T04:31:30;3.58;;;2.60;;
21822;SDS011;11074;48.596;9.238;2023-02-28T04:33:56;6.68;;;3.17;;
21822;SDS011;11074;48.596;9.238;2023-02-28T04:36:22;5.75;;;3.17;;
21822;SDS011;11074;48.596;9.238;2023-02-28T04:38:48;7.78;;;3.53;;
21822;SDS011;11074;48.596;9.238;2023-02-28T04:41:14;7.03;;;3.47;;
21822;SDS011;11074;48.596;9.238;2023-02-28T04:43:41;5.63;;;2.90;;
21822;SDS011;11074;48.596;9.238;2023-02-28T04:46:07;4.75;;;3.35;;
21822;SDS011;11074;48.596;9.238;2023-02-28T04:48:35;7.32;;;3.55;;
21822;SDS011;11074;48.596;9.238;2023-02-28T04:51:10;6.53;;;3.25;;
21822;SDS011;11074;48.596;9.238;2023-02-28T04:53:39;8.93;;;3.20;;
21822;SDS011;11074;48.596;9.238;2023-02-28T04:56:07;7.47;;;3.55;;
21822;SDS011;11074;48.596;9.238;2023-02-28T04:58:37;5.50;;;3.50;;
21822;SDS011;11074;48.596;9.238;2023-02-28T05:01:03;7.07;;;3.53;;
21822;SDS011;11074;48.596;9.238;2023-02-28T05:03:37;6.03;;;3.70;;
21822;SDS011;11074;48.596;9.238;2023-02-28T05:06:05;5.50;;;3.45;;
21822;SDS011;11074;48.596;9.238;2023-02-28T05:08:32;5.85;;;3.40;;
21822;SDS011;11074;48.596;9.238;2023-02-28T05:10:58;6.95;;;3.60;;
21822;SDS011;11074;48.596;9.238;2023-02-28T05:13:27;5.90;;;3.42;;
21822;SDS011;11074;48.596;9.238;2023-02-28T05:15:57;5.80;;;4.03;;
21822;SDS011;11074;48.596;9.238;2023-02-28T05:18:22;5.45;;;3.55;;
21822;SDS011;11074;48.596;9.238;2023-02-28T05:20:48;5.72;;;3.47;;
21822;SDS011;11074;48.596;9.238;2023-02-28T05:23:14;6.88;;;4.07;;
21822;SDS011;11074;48.596;9.238;2023-02-28T05:25:42;5.65;;;3.42;;
21822;SDS011;11074;48.596;9.238;2023-02-28T05:28:08;5.57;;;3.97;;
21822;SDS011;11074;48.596;9.238;2023-02-28T05:30:33;6.75;;;3.72;;
21822;SDS011;11074;48.596;9.238;2023-02-28T05:32:59;6.38;;;3.60;;
21822;SDS011;11074;48.596;9.238;2023-02-28T05:35:25;6.82;;;3.92;;
21822;SDS011;11074;48.596;9.238;2023-02-28T05:37:51;7.05;;;3.85;;
21822;SDS011;11074;48.596;9.238;2023-02-28T05:40:17;6.20;;;3.90;;
21822;SDS011;11074;48.596;9.238;2023-02-28T05:42:45;7.68;;;4.22;;
21822;SDS011;11074;48.596;9.238;2023-02-28T05:45:11;6.30;;;3.90;;
21822;SDS011;11074;48.596;9.238;2023-02-28T05:47:37;8.05;;;4.63;;
21822;SDS011;11074;48.596;9.238;2023-02-28T05:50:04;6.03;;;4.05;;
21822;SDS011;11074;48.596;9.238;2023-02-28T05:52:31;8.90;;;5.13;;
21822;SDS011;11074;48.596;9.238;2023-02-28T05:54:58;6.13;;;4.45;;
21822;SDS011;11074;48.596;9.238;2023-02-28T05:57:24;7.20;;;4.25;;
21822;SDS011;11074;48.596;9.238;2023-02-28T05:59:50;5.25;;;3.72;;
21822;SDS011;11074;48.596;9.238;2023-02-28T06:02:16;6.38;;;4.00;;
21822;SDS011;11074;48.596;9.238;2023-02-28T06:04:43;7.95;;;4.78;;
21822;SDS011;11074;48.596;9.238;2023-02-28T06:07:10;8.38;;;4.78;;
21822;SDS011;11074;48.596;9.238;2023-02-28T06:09:36;8.40;;;5.30;;
21822;SDS011;11074;48.596;9.238;2023-02-28T06:12:03;7.00;;;5.00;;
21822;SDS011;11074;48.596;9.238;2023-02-28T06:14:32;8.32;;;5.30;;
21822;SDS011;11074;48.596;9.238;2023-02-28T06:16:59;6.72;;;5.07;;
21822;SDS011;11074;48.596;9.238;2023-02-28T06:19:26;9.60;;;4.95;;
21822;SDS011;11074;48.596;9.238;2023-02-28T06:21:53;6.82;;;4.70;;
21822;SDS011;11074;48.596;9.238;2023-02-28T06:24:20;7.93;;;5.10;;
21822;SDS011;11074;48.596;9.238;2023-02-28T06:26:49;8.05;;;5.05;;
21822;SDS011;11074;48.596;9.238;2023-02-28T06:29:15;9.23;;;4.82;;
21822;SDS011;11074;48.596;9.238;2023-02-28T06:31:43;7.65;;;4.95;;
21822;SDS011;11074;48.596;9.238;2023-02-28T06:34:13;7.55;;;4.85;;
21822;SDS011;11074;48.596;9.238;2023-02-28T06:36:39;8.05;;;5.18;;
21822;SDS011;11074;48.596;9.238;2023-02-28T06:39:06;9.13;;;5.32;;
21822;SDS011;11074;48.596;9.238;2023-02-28T06:41:33;7.80;;;4.60;;
21822;SDS011;11074;48.596;9.238;2023-02-28T06:44:03;7.75;;;5.10;;
21822;SDS011;11074;48.596;9.238;2023-02-28T06:46:30;6.95;;;5.10;;
21822;SDS011;11074;48.596;9.238;2023-02-28T06:48:56;8.75;;;4.90;;
21822;SDS011;11074;48.596;9.238;2023-02-28T06:51:22;10.70;;;5.40;;
21822;SDS011;11074;48.596;9.238;2023-02-28T06:53:49;9.13;;;5.25;;
21822;SDS011;11074;48.596;9.238;2023-02-28T06:56:16;7.60;;;5.25;;
21822;SDS011;11074;48.596;9.238;2023-02-28T06:58:47;9.13;;;6.00;;
21822;SDS011;11074;48.596;9.238;2023-02-28T07:01:15;7.88;;;5.50;;
21822;SDS011;11074;48.596;9.238;2023-02-28T07:03:41;7.57;;;5.30;;
21822;SDS011;11074;48.596;9.238;2023-02-28T07:06:07;9.88;;;5.45;;
21822;SDS011;11074;48.596;9.238;2023-02-28T07:08:33;11.25;;;5.28;;
21822;SDS011;11074;48.596;9.238;2023-02-28T07:11:00;9.60;;;5.45;;
21822;SDS011;11074;48.596;9.238;2023-02-28T07:13:27;8.23;;;5.55;;
21822;SDS011;11074;48.596;9.238;2023-02-28T07:15:57;9.15;;;5.57;;
21822;SDS011;11074;48.596;9.238;2023-02-28T07:18:29;8.38;;;5.78;;
21822;SDS011;11074;48.596;9.238;2023-02-28T07:20:55;10.07;;;5.38;;
21822;SDS011;11074;48.596;9.238;2023-02-28T07:23:21;9.00;;;5.65;;
21822;SDS011;11074;48.596;9.238;2023-02-28T07:25:49;10.07;;;6.25;;
21822;SDS011;11074;48.596;9.238;2023-02-28T07:28:16;8.95;;;6.13;;
21822;SDS011;11074;48.596;9.238;2023-02-28T07:30:42;11.45;;;5.70;;
21822;SDS011;11074;48.596;9.238;2023-02-28T07:33:08;9.25;;;5.38;;
21822;SDS011;11074;48.596;9.238;2023-02-28T07:35:35;11.90;;;5.55;;
21822;SDS011;11074;48.596;9.238;2023-02-28T07:38:01;9.40;;;5.28;;
21822;SDS011;11074;48.596;9.238;2023-02-28T07:40:27;9.75;;;6.00;;
21822;SDS011;11074;48.596;9.238;2023-02-28T07:42:53;9.23;;;5.90;;
21822;SDS011;11074;48.596;9.238;2023-02-28T07:45:19;10.02;;;6.03;;
21822;SDS011;11074;48.596;9.238;2023-02-28T07:47:45;9.90;;;6.05;;
21822;SDS011;11074;48.596;9.238;2023-02-28T07:50:12;10.90;;;6.63;;
21822;SDS011;11074;48.596;9.238;2023-02-28T07:52:41;11.90;;;7.15;;
21822;SDS011;11074;48.596;9.238;2023-02-28T07:55:07;11.00;;;6.53;;
21822;SDS011;11074;48.596;9.238;2023-02-28T07:57:34;9.23;;;6.18;;
21822;SDS011;11074;48.596;9.238;2023-02-28T08:00:01;10.20;;;6.40;;
21822;SDS011;11074;48.596;9.238;2023-02-28T08:02:31;8.98;;;5.50;;
21822;SDS011;11074;48.596;9.238;2023-02-28T08:04:57;9.40;;;6.30;;
21822;SDS011;11074;48.596;9.238;2023-02-28T08:07:22;9.23;;;5.72;;
21822;SDS011;11074;48.596;9.238;2023-02-28T08:09:48;10.73;;;6.38;;
21822;SDS011;11074;48.596;9.238;2023-02-28T08:12:14;10.48;;;6.25;;
21822;SDS011;11074;48.596;9.238;2023-02-28T08:14:39;9.25;;;6.18;;
21822;SDS011;11074;48.596;9.238;2023-02-28T08:17:05;11.25;;;6.57;;
21822;SDS011;11074;48.596;9.238;2023-02-28T08:19:31;12.13;;;6.85;;
21822;SDS011;11074;48.596;9.238;2023-02-28T08:21:57;10.63;;;6.53;;
21822;SDS011;11074;48.596;9.238;2023-02-28T08:24:23;9.45;;;6.13;;
21822;SDS011;11074;48.596;9.238;2023-02-28T08:26:49;9.65;;;6.50;;
21822;SDS011;11074;48.596;9.238;2023-02-28T08:29:15;10.50;;;6.63;;
21822;SDS011;11074;48.596;9.238;2023-02-28T08:31:41;10.38;;;6.70;;
21822;SDS011;11074;48.596;9.238;2023-02-28T08:34:08;9.90;;;6.75;;
21822;SDS011;11074;48.596;9.238;2023-02-28T08:36:36;8.38;;;6.07;;
21822;SDS011;11074;48.596;9.238;2023-02-28T08:39:03;15.27;;;8.65;;
21822;SDS011;11074;48.596;9.238;2023-02-28T08:41:30;11.52;;;7.25;;
21822;SDS011;11074;48.596;9.238;2023-02-28T08:43:56;10.98;;;7.13;;
21822;SDS011;11074;48.596;9.238;2023-02-28T08:46:22;11.35;;;6.95;;
21822;SDS011;11074;48.596;9.238;2023-02-28T08:48:51;13.13;;;7.30;;
21822;SDS011;11074;48.596;9.238;2023-02-28T08:51:18;9.20;;;6.68;;
21822;SDS011;11074;48.596;9.238;2023-02-28T08:53:54;9.95;;;6.50;;
21822;SDS011;11074;48.596;9.238;2023-02-28T08:56:24;9.73;;;6.55;;
21822;SDS011;11074;48.596;9.238;2023-02-28T08:58:51;9.40;;;6.50;;
21822;SDS011;11074;48.596;9.238;2023-02-28T09:01:21;9.73;;;6.47;;
21822;SDS011;11074;48.596;9.238;2023-02-28T09:03:52;10.73;;;6.72;;
21822;SDS011;11074;48.596;9.238;2023-02-28T09:06:19;10.45;;;6.53;;
21822;SDS011;11074;48.596;9.238;2023-02-28T09:08:47;9.23;;;6.43;;
21822;SDS011;11074;48.596;9.238;2023-02-28T09:11:14;9.18;;;6.25;;
21822;SDS011;11074;48.596;9.238;2023-02-28T09:13:41;10.07;;;6.55;;
21822;SDS011;11074;48.596;9.238;2023-02-28T09:16:08;11.18;;;6.78;;
21822;SDS011;11074;48.596;9.238;2023-02-28T09:18:38;11.48;;;6.90;;
21822;SDS011;11074;48.596;9.238;2023-02-28T09:21:06;10.35;;;6.60;;
21822;SDS011;11074;48.596;9.238;2023-02-28T09:23:34;10.10;;;6.90;;
21822;SDS011;11074;48.596;9.238;2023-02-28T09:26:02;10.50;;;6.82;;
21822;SDS011;11074;48.596;9.238;2023-02-28T09:28:30;10.55;;;6.57;;
21822;SDS011;11074;48.596;9.238;2023-02-28T09:30:55;13.60;;;6.95;;
21822;SDS011;11074;48.596;9.238;2023-02-28T09:33:23;11.38;;;7.20;;
21822;SDS011;11074;48.596;9.238;2023-02-28T09:35:50;10.38;;;7.03;;
21822;SDS011;11074;48.596;9.238;2023-02-28T09:40:50;8.82;;;6.22;;
21822;SDS011;11074;48.596;9.238;2023-02-28T09:43:22;10.48;;;6.80;;
21822;SDS011;11074;48.596;9.238;2023-02-28T09:49:02;10.00;;;6.90;;
21822;SDS011;11074;48.596;9.238;2023-02-28T09:54:13;11.57;;;6.80;;
21822;SDS011;11074;48.596;9.238;2023-02-28T09:57:07;11.75;;;7.25;;
21822;SDS011;11074;48.596;9.238;2023-02-28T10:10:44;11.40;;;7.30;;
21822;SDS011;11074;48.596;9.238;2023-02-28T10:13:35;11.50;;;6.95;;
21822;SDS011;11074;48.596;9.238;2023-02-28T10:16:13;12.75;;;7.80;;
21822;SDS011;11074;48.596;9.238;2023-02-28T10:19:14;9.32;;;5.80;;
21822;SDS011;11074;48.596;9.238;2023-02-28T10:22:05;9.10;;;5.50;;
21822;SDS011;11074;48.596;9.238;2023-02-28T10:24:46;9.48;;;6.10;;
21822;SDS011;11074;48.596;9.238;2023-02-28T10:27:19;15.88;;;7.25;;
21822;SDS011;11074;48.596;9.238;2023-02-28T10:29:49;12.25;;;6.93;;
21822;SDS011;11074;48.596;9.238;2023-02-28T10:32:19;11.68;;;6.90;;
21822;SDS011;11074;48.596;9.238;2023-02-28T10:37:50;10.30;;;7.15;;
21822;SDS011;11074;48.596;9.238;2023-02-28T10:43:03;11.23;;;8.23;;
21822;SDS011;11074;48.596;9.238;2023-02-28T10:45:52;11.43;;;7.63;;
21822;SDS011;11074;48.596;9.238;2023-02-28T10:48:30;10.65;;;7.72;;
21822;SDS011;11074;48.596;9.238;2023-02-28T10:51:06;12.30;;;8.60;;
21822;SDS011;11074;48.596;9.238;2023-02-28T10:53:45;11.75;;;7.90;;
21822;SDS011;11074;48.596;9.238;2023-02-28T10:56:16;12.35;;;8.18;;
21822;SDS011;11074;48.596;9.238;2023-02-28T11:04:31;10.75;;;8.02;;
21822;SDS011;11074;48.596;9.238;2023-02-28T11:07:04;13.20;;;7.20;;
21822;SDS011;11074;48.596;9.238;2023-02-28T11:09:44;12.18;;;7.07;;
21822;SDS011;11074;48.596;9.238;2023-02-28T11:12:47;13.88;;;8.95;;
21822;SDS011;11074;48.596;9.238;2023-02-28T11:15:20;10.95;;;8.25;;
21822;SDS011;11074;48.596;9.238;2023-02-28T11:20:36;12.30;;;8.10;;
21822;SDS011;11074;48.596;9.238;2023-02-28T11:23:03;12.60;;;7.88;;
21822;SDS011;11074;48.596;9.238;2023-02-28T11:25:31;10.13;;;7.18;;
21822;SDS011;11074;48.596;9.238;2023-02-28T11:28:02;11.20;;;7.47;;
21822;SDS011;11074;48.596;9.238;2023-02-28T11:30:59;13.50;;;8.23;;
21822;SDS011;11074;48.596;9.238;2023-02-28T11:33:51;16.08;;;7.82;;
21822;SDS011;11074;48.596;9.238;2023-02-28T11:39:07;12.63;;;7.70;;
21822;SDS011;11074;48.596;9.238;2023-02-28T11:47:37;11.43;;;8.02;;
21822;SDS011;11074;48.596;9.238;2023-02-28T11:50:18;11.95;;;7.78;;
21822;SDS011;11074;48.596;9.238;2023-02-28T11:56:36;9.60;;;7.30;;
21822;SDS011;11074;48.596;9.238;2023-02-28T12:02:58;10.55;;;7.25;;
21822;SDS011;11074;48.596;9.238;2023-02-28T12:05:46;11.18;;;7.63;;
21822;SDS011;11074;48.596;9.238;2023-02-28T12:13:57;9.85;;;7.53;;
21822;SDS011;11074;48.596;9.238;2023-02-28T12:26:05;11.15;;;7.60;;
21822;SDS011;11074;48.596;9.238;2023-02-28T12:29:01;11.93;;;7.70;;
21822;SDS011;11074;48.596;9.238;2023-02-28T12:31:55;12.10;;;7.70;;
21822;SDS011;11074;48.596;9.238;2023-02-28T12:34:38;10.57;;;7.63;;
21822;SDS011;11074;48.596;9.238;2023-02-28T12:37:13;11.10;;;8.10;;
21822;SDS011;11074;48.596;9.238;2023-02-28T12:40:00;11.25;;;8.18;;
21822;SDS011;11074;48.596;9.238;2023-02-28T12:42:42;11.18;;;7.82;;
21822;SDS011;11074;48.596;9.238;2023-02-28T12:45:19;10.25;;;7.47;;
21822;SDS011;11074;48.596;9.238;2023-02-28T12:47:50;12.52;;;7.72;;
21822;SDS011;11074;48.596;9.238;2023-02-28T12:50:29;10.93;;;7.78;;
21822;SDS011;11074;48.596;9.238;2023-02-28T12:55:31;11.23;;;7.65;;
21822;SDS011;11074;48.596;9.238;2023-02-28T13:04:19;12.40;;;7.70;;
21822;SDS011;11074;48.596;9.238;2023-02-28T13:10:23;11.07;;;7.95;;
21822;SDS011;11074;48.596;9.238;2023-02-28T13:12:51;12.65;;;7.65;;
21822;SDS011;11074;48.596;9.238;2023-02-28T13:15:26;12.18;;;8.35;;
21822;SDS011;11074;48.596;9.238;2023-02-28T13:17:57;10.93;;;7.45;;
21822;SDS011;11074;48.596;9.238;2023-02-28T13:23:02;13.90;;;7.97;;
21822;SDS011;11074;48.596;9.238;2023-02-28T13:27:59;12.43;;;8.07;;
21822;SDS011;11074;48.596;9.238;2023-02-28T13:33:28;12.77;;;8.80;;
21822;SDS011;11074;48.596;9.238;2023-02-28T13:44:04;14.60;;;9.02;;
21822;SDS011;11074;48.596;9.238;2023-02-28T13:57:50;12.57;;;8.27;;
21822;SDS011;11074;48.596;9.238;2023-02-28T14:18:25;12.05;;;8.75;;
21822;SDS011;11074;48.596;9.238;2023-02-28T14:21:10;12.65;;;8.27;;
21822;SDS011;11074;48.596;9.238;2023-02-28T14:32:49;13.75;;;9.02;;
21822;SDS011;11074;48.596;9.238;2023-02-28T14:35:52;9.80;;;8.00;;
21822;SDS011;11074;48.596;9.238;2023-02-28T14:39:19;10.45;;;7.72;;
21822;SDS011;11074;48.596;9.238;2023-02-28T14:41:51;10.57;;;8.27;;
21822;SDS011;11074;48.596;9.238;2023-02-28T14:46:58;11.93;;;8.55;;
21822;SDS011;11074;48.596;9.238;2023-02-28T14:49:31;10.98;;;7.60;;
21822;SDS011;11074;48.596;9.238;2023-02-28T14:54:35;10.80;;;7.35;;
21822;SDS011;11074;48.596;9.238;2023-02-28T14:57:02;8.73;;;6.55;;
21822;SDS011;11074;48.596;9.238;2023-02-28T14:59:31;10.00;;;7.32;;
21822;SDS011;11074;48.596;9.238;2023-02-28T15:02:14;10.32;;;7.00;;
21822;SDS011;11074;48.596;9.238;2023-02-28T15:04:52;10.45;;;7.38;;
21822;SDS011;11074;48.596;9.238;2023-02-28T15:07:35;9.88;;;7.30;;
21822;SDS011;11074;48.596;9.238;2023-02-28T15:10:13;10.40;;;7.05;;
21822;SDS011;11074;48.596;9.238;2023-02-28T15:12:49;8.85;;;6.80;;
21822;SDS011;11074;48.596;9.238;2023-02-28T15:15:21;10.68;;;6.90;;
21822;SDS011;11074;48.596;9.238;2023-02-28T15:17:52;8.07;;;6.75;;
21822;SDS011;11074;48.596;9.238;2023-02-28T15:20:23;12.20;;;6.88;;
21822;SDS011;11074;48.596;9.238;2023-02-28T15:22:51;9.15;;;6.55;;
21822;SDS011;11074;48.596;9.238;2023-02-28T15:25:21;10.73;;;6.93;;
21822;SDS011;11074;48.596;9.238;2023-02-28T15:27:49;8.68;;;6.70;;
21822;SDS011;11074;48.596;9.238;2023-02-28T15:30:20;9.55;;;7.05;;
21822;SDS011;11074;48.596;9.238;2023-02-28T15:35:41;9.32;;;6.82;;
21822;SDS011;11074;48.596;9.238;2023-02-28T15:40:53;8.75;;;6.78;;
21822;SDS011;11074;48.596;9.238;2023-02-28T15:43:29;10.02;;;7.40;;
21822;SDS011;11074;48.596;9.238;2023-02-28T15:46:05;10.98;;;7.45;;
21822;SDS011;11074;48.596;9.238;2023-02-28T15:48:36;11.70;;;8.02;;
21822;SDS011;11074;48.596;9.238;2023-02-28T15:51:18;11.18;;;7.65;;
21822;SDS011;11074;48.596;9.238;2023-02-28T15:54:12;13.05;;;8.98;;
21822;SDS011;11074;48.596;9.238;2023-02-28T15:56:45;10.20;;;8.00;;
21822;SDS011;11074;48.596;9.238;2023-02-28T15:59:18;15.05;;;10.35;;
21822;SDS011;11074;48.596;9.238;2023-02-28T16:04:54;13.95;;;9.82;;
21822;SDS011;11074;48.596;9.238;2023-02-28T16:07:42;11.88;;;8.20;;
21822;SDS011;11074;48.596;9.238;2023-02-28T16:10:09;11.90;;;8.55;;
21822;SDS011;11074;48.596;9.238;2023-02-28T16:12:39;12.35;;;8.18;;
21822;SDS011;11074;48.596;9.238;2023-02-28T16:15:16;12.90;;;9.20;;
21822;SDS011;11074;48.596;9.238;2023-02-28T16:17:52;10.32;;;7.40;;
21822;SDS011;11074;48.596;9.238;2023-02-28T16:20:20;13.07;;;9.07;;
21822;SDS011;11074;48.596;9.238;2023-02-28T16:22:50;14.60;;;9.68;;
21822;SDS011;11074;48.596;9.238;2023-02-28T16:25:19;12.30;;;9.10;;
21822;SDS011;11074;48.596;9.238;2023-02-28T16:27:51;15.88;;;11.35;;
21822;SDS011;11074;48.596;9.238;2023-02-28T16:30:20;16.77;;;11.60;;
21822;SDS011;11074;48.596;9.238;2023-02-28T16:32:51;15.55;;;10.88;;
21822;SDS011;11074;48.596;9.238;2023-02-28T16:35:19;17.20;;;11.50;;
21822;SDS011;11074;48.596;9.238;2023-02-28T16:37:47;16.35;;;11.30;;
21822;SDS011;11074;48.596;9.238;2023-02-28T16:40:19;14.02;;;9.55;;
21822;SDS011;11074;48.596;9.238;2023-02-28T16:42:51;13.60;;;9.20;;
21822;SDS011;11074;48.596;9.238;2023-02-28T16:45:24;13.87;;;9.43;;
21822;SDS011;11074;48.596;9.238;2023-02-28T16:47:53;13.75;;;9.10;;
21822;SDS011;11074;48.596;9.238;2023-02-28T16:50:21;15.38;;;10.05;;
21822;SDS011;11074;48.596;9.238;2023-02-28T16:52:52;14.07;;;10.27;;
21822;SDS011;11074;48.596;9.238;2023-02-28T16:55:19;13.65;;;9.32;;
21822;SDS011;11074;48.596;9.238;2023-02-28T16:57:49;15.38;;;11.43;;
21822;SDS011;11074;48.596;9.238;2023-02-28T17:00:19;14.60;;;9.82;;
21822;SDS011;11074;48.596;9.238;2023-02-28T17:02:46;15.07;;;9.77;;
21822;SDS011;11074;48.596;9.238;2023-02-28T17:05:12;15.40;;;11.18;;
21822;SDS011;11074;48.596;9.238;2023-02-28T17:07:40;14.20;;;9.57;;
21822;SDS011;11074;48.596;9.238;2023-02-28T17:10:17;13.05;;;8.80;;
21822;SDS011;11074;48.596;9.238;2023-02-28T17:12:50;14.10;;;9.48;;
21822;SDS011;11074;48.596;9.238;2023-02-28T17:15:17;11.95;;;9.38;;
21822;SDS011;11074;48.596;9.238;2023-02-28T17:17:44;15.52;;;9.05;;
21822;SDS011;11074;48.596;9.238;2023-02-28T17:20:16;18.90;;;12.38;;
21822;SDS011;11074;48.596;9.238;2023-02-28T17:22:47;18.73;;;11.10;;
21822;SDS011;11074;48.596;9.238;2023-02-28T17:25:14;22.40;;;12.48;;
21822;SDS011;11074;48.596;9.238;2023-02-28T17:27:40;18.67;;;10.70;;
21822;SDS011;11074;48.596;9.238;2023-02-28T17:30:12;14.70;;;9.15;;
21822;SDS011;11074;48.596;9.238;2023-02-28T17:32:52;14.63;;;10.15;;
21822;SDS011;11074;48.596;9.238;2023-02-28T17:35:21;12.48;;;8.45;;
21822;SDS011;11074;48.596;9.238;2023-02-28T17:37:48;12.90;;;8.32;;
21822;SDS011;11074;48.596;9.238;2023-02-28T17:40:15;12.65;;;8.40;;
21822;SDS011;11074;48.596;9.238;2023-02-28T17:42:46;13.30;;;8.25;;
21822;SDS011;11074;48.596;9.238;2023-02-28T17:45:11;13.00;;;8.13;;
21822;SDS011;11074;48.596;9.238;2023-02-28T17:47:39;13.38;;;9.13;;
21822;SDS011;11074;48.596;9.238;2023-02-28T17:50:14;15.10;;;10.65;;
21822;SDS011;11074;48.596;9.238;2023-02-28T17:52:45;15.82;;;10.65;;
21822;SDS011;11074;48.596;9.238;2023-02-28T17:55:11;13.40;;;8.60;;
21822;SDS011;11074;48.596;9.238;2023-02-28T17:57:37;13.02;;;8.65;;
21822;SDS011;11074;48.596;9.238;2023-02-28T18:00:03;17.88;;;12.63;;